Time;durP1;ratioP1;P1;durP2;ratioP2;P2;SDS_P1;SDS_P2;PMS_P1;PMS_P2;Temp;Humidity;BMP_temperature;BMP_pressure;BME280_temperature;BME280_humidity;BME280_pressure;Samples;Min_cycle;Max_cycle;Signal;HPM_P1;HPM_P2
2023/12/11 00:01:35;;;;;;;117.18;108.22;;;9.80;99.90;;;;;;12634578;28;20044;-36
2023/12/11 00:07:37;;;;;;;104.72;97.07;;;9.80;99.90;;;;;;12625014;28;20127;-35
2023/12/11 00:13:38;;;;;;;109.45;100.95;;;9.90;99.90;;;;;;12625657;28;20052;-36
2023/12/11 00:19:41;;;;;;;108.75;100.53;;;9.90;99.90;;;;;;12620508;28;20052;-35
2023/12/11 00:25:47;;;;;;;100.43;93.18;;;9.90;99.90;;;;;;12631182;28;20078;-35
2023/12/11 00:31:49;;;;;;;103.13;95.55;;;10.00;99.90;;;;;;12613076;28;20045;-35
2023/12/11 00:37:50;;;;;;;115.47;107.28;;;10.00;99.90;;;;;;12611101;28;20522;-35
2023/12/11 00:43:52;;;;;;;118.88;109.85;;;9.90;99.90;;;;;;12594488;28;20103;-36
2023/12/11 00:49:54;;;;;;;112.53;104.40;;;9.90;99.90;;;;;;12600784;28;20051;-35
2023/12/11 00:55:56;;;;;;;122.25;112.90;;;9.90;99.90;;;;;;12618832;28;20092;-36
2023/12/11 01:01:58;;;;;;;108.35;99.88;;;9.80;99.90;;;;;;12621911;28;20058;-35
2023/12/11 01:08:00;;;;;;;106.82;98.30;;;9.90;99.90;;;;;;12608411;28;20043;-35
2023/12/11 01:14:02;;;;;;;108.95;100.65;;;9.90;99.90;;;;;;12613402;28;20047;-35
2023/12/11 01:20:04;;;;;;;108.85;100.70;;;9.90;99.90;;;;;;12630443;28;20409;-36
2023/12/11 01:26:06;;;;;;;111.57;102.85;;;9.90;99.90;;;;;;12619025;28;20047;-36
2023/12/11 01:32:08;;;;;;;120.50;110.95;;;9.80;99.90;;;;;;12622066;28;20094;-36
2023/12/11 01:38:10;;;;;;;114.75;105.78;;;9.80;99.90;;;;;;12611649;28;20052;-36
2023/12/11 01:44:12;;;;;;;110.30;101.50;;;9.70;99.90;;;;;;12622816;28;20090;-35
2023/12/11 01:50:14;;;;;;;118.53;109.57;;;9.80;99.90;;;;;;12620006;28;20462;-35
2023/12/11 01:56:17;;;;;;;121.78;112.28;;;9.70;99.90;;;;;;12611649;28;20095;-35
2023/12/11 02:02:22;;;;;;;122.95;113.18;;;9.60;99.90;;;;;;12614961;28;20048;-35
2023/12/11 02:08:24;;;;;;;123.43;113.72;;;9.60;99.90;;;;;;12609611;28;20131;-36
2023/12/11 02:14:26;;;;;;;117.80;108.35;;;9.50;99.90;;;;;;12608525;28;20165;-35
2023/12/11 02:20:27;;;;;;;124.75;114.93;;;9.60;99.90;;;;;;12615623;28;20414;-35
2023/12/11 02:26:32;;;;;;;119.57;110.30;;;9.40;99.90;;;;;;12607114;28;20103;-35
2023/12/11 02:32:34;;;;;;;117.15;107.78;;;9.40;99.90;;;;;;12620126;28;20048;-35
2023/12/11 02:38:36;;;;;;;120.63;110.90;;;9.40;99.90;;;;;;12618125;28;20052;-35
2023/12/11 02:44:37;;;;;;;118.93;109.28;;;9.40;99.90;;;;;;12617609;28;20044;-35
2023/12/11 02:50:39;;;;;;;115.28;106.28;;;9.30;99.90;;;;;;12623503;28;20075;-35
2023/12/11 02:56:41;;;;;;;122.70;112.85;;;9.40;99.90;;;;;;12606364;28;20530;-35
2023/12/11 03:02:43;;;;;;;122.35;112.53;;;9.30;99.90;;;;;;12623168;28;20521;-35
2023/12/11 03:08:45;;;;;;;116.60;107.40;;;9.20;99.90;;;;;;12600580;28;20509;-35
2023/12/11 03:14:47;;;;;;;120.43;110.70;;;9.20;99.90;;;;;;12609396;28;20075;-36
2023/12/11 03:20:49;;;;;;;115.97;106.60;;;9.10;99.90;;;;;;12618719;28;20099;-35
2023/12/11 03:26:50;;;;;;;118.30;107.97;;;9.10;99.90;;;;;;12607303;28;20040;-36
2023/12/11 03:32:52;;;;;;;119.88;109.38;;;9.10;99.90;;;;;;12598753;28;20055;-35
2023/12/11 03:38:55;;;;;;;117.18;107.50;;;8.90;99.90;;;;;;12618395;28;20080;-35
2023/12/11 03:44:58;;;;;;;119.30;108.65;;;8.90;99.90;;;;;;12610972;28;20447;-35
2023/12/11 03:51:00;;;;;;;114.50;104.45;;;8.90;99.90;;;;;;12618761;28;20521;-35
2023/12/11 03:57:02;;;;;;;115.65;105.60;;;8.90;99.90;;;;;;12624958;28;20116;-35
2023/12/11 04:03:03;;;;;;;119.78;109.50;;;8.90;99.90;;;;;;12606018;28;20048;-35
2023/12/11 04:09:05;;;;;;;115.80;105.88;;;8.80;99.90;;;;;;12614366;28;20083;-35
2023/12/11 04:15:07;;;;;;;112.43;102.82;;;8.80;99.90;;;;;;12619573;28;20083;-35
2023/12/11 04:21:09;;;;;;;101.65;92.63;;;8.90;99.90;;;;;;12616970;28;20121;-35
2023/12/11 04:27:11;;;;;;;103.90;94.40;;;9.10;99.90;;;;;;12607715;28;20052;-35
2023/12/11 04:33:13;;;;;;;112.45;102.95;;;9.20;99.90;;;;;;12635589;28;20079;-35
2023/12/11 04:39:15;;;;;;;113.75;103.50;;;9.10;99.90;;;;;;12628606;28;20073;-35
2023/12/11 04:45:17;;;;;;;100.78;91.68;;;9.10;99.90;;;;;;12637968;28;20047;-35
2023/12/11 04:51:18;;;;;;;103.60;94.22;;;9.10;99.90;;;;;;12615585;28;20630;-35
2023/12/11 04:57:20;;;;;;;100.25;91.00;;;9.20;99.90;;;;;;12624409;28;20880;-36
2023/12/11 05:03:22;;;;;;;95.93;86.88;;;9.10;99.90;;;;;;12597920;28;20504;-35
2023/12/11 05:09:24;;;;;;;93.53;84.53;;;9.10;99.90;;;;;;12608511;28;20138;-35
2023/12/11 05:15:26;;;;;;;98.68;89.30;;;9.20;99.90;;;;;;12610258;28;20052;-35
2023/12/11 05:21:28;;;;;;;106.22;95.85;;;9.10;99.90;;;;;;12610764;28;20044;-35
2023/12/11 05:27:30;;;;;;;107.88;97.88;;;8.90;99.90;;;;;;12610290;28;20398;-35
2023/12/11 05:33:32;;;;;;;111.45;101.60;;;8.90;99.90;;;;;;12593418;28;20167;-35
2023/12/11 05:39:34;;;;;;;97.05;88.20;;;8.70;99.90;;;;;;12606369;28;20169;-35
2023/12/11 05:45:39;;;;;;;90.20;81.65;;;8.80;99.90;;;;;;12614256;28;20048;-35
2023/12/11 05:51:41;;;;;;;92.35;83.72;;;8.90;99.90;;;;;;12616347;28;20410;-35
2023/12/11 05:57:43;;;;;;;105.20;95.35;;;9.00;99.90;;;;;;12624287;28;20044;-35
2023/12/11 06:03:48;;;;;;;111.65;101.68;;;8.90;99.90;;;;;;12614344;28;20086;-36
2023/12/11 06:09:50;;;;;;;101.72;92.57;;;8.70;99.90;;;;;;12626029;28;20509;-35
2023/12/11 06:15:52;;;;;;;101.45;92.40;;;8.70;99.90;;;;;;12630363;28;20525;-35
2023/12/11 06:21:54;;;;;;;98.10;88.80;;;8.80;99.90;;;;;;12636310;28;20063;-36
2023/12/11 06:27:56;;;;;;;105.88;96.05;;;8.70;99.90;;;;;;12612734;28;20040;-36
2023/12/11 06:33:58;;;;;;;104.63;94.97;;;8.70;99.90;;;;;;12634392;28;20127;-35
2023/12/11 06:40:00;;;;;;;104.13;94.60;;;8.60;99.90;;;;;;12602634;28;20068;-36
2023/12/11 06:46:03;;;;;;;104.25;95.22;;;8.70;99.90;;;;;;12603632;28;20546;-35
2023/12/11 06:52:05;;;;;;;124.35;113.55;;;8.70;99.90;;;;;;12605596;28;20486;-36
2023/12/11 06:58:07;;;;;;;141.55;129.82;;;8.60;99.90;;;;;;12628289;28;20044;-35
2023/12/11 07:04:09;;;;;;;152.93;140.93;;;8.50;99.90;;;;;;12606803;28;20078;-35
2023/12/11 07:10:11;;;;;;;148.65;136.85;;;8.40;99.90;;;;;;12619561;28;20604;-35
2023/12/11 07:16:14;;;;;;;146.75;134.80;;;8.40;99.90;;;;;;12609709;28;20051;-35
2023/12/11 07:22:16;;;;;;;147.38;135.90;;;8.30;99.90;;;;;;12636957;28;20036;-36
2023/12/11 07:28:18;;;;;;;141.73;130.68;;;8.30;99.90;;;;;;12619856;28;20041;-35
2023/12/11 07:34:21;;;;;;;146.77;135.90;;;8.30;99.90;;;;;;12615574;28;20044;-35
2023/12/11 07:40:23;;;;;;;138.60;128.37;;;8.30;99.90;;;;;;12613800;28;20052;-36
2023/12/11 07:46:25;;;;;;;125.63;116.25;;;8.30;99.90;;;;;;12607927;28;20119;-36
2023/12/11 07:52:31;;;;;;;131.35;121.38;;;8.30;99.90;;;;;;12611641;28;20047;-36
2023/12/11 07:58:33;;;;;;;133.77;123.55;;;8.30;99.90;;;;;;12607702;28;20056;-35
2023/12/11 08:04:38;;;;;;;149.25;138.25;;;8.50;99.90;;;;;;12600520;28;20047;-36
2023/12/11 08:10:41;;;;;;;153.57;142.30;;;8.40;99.90;;;;;;12611044;28;20063;-36
2023/12/11 08:16:43;;;;;;;137.73;127.05;;;8.40;99.90;;;;;;12609784;28;20072;-35
2023/12/11 08:22:45;;;;;;;135.48;125.13;;;8.50;99.90;;;;;;12609212;28;20051;-35
2023/12/11 08:28:50;;;;;;;139.68;128.32;;;8.70;99.90;;;;;;12594941;28;20044;-35
2023/12/11 08:34:52;;;;;;;138.35;127.00;;;8.80;99.90;;;;;;12598571;28;20052;-36
2023/12/11 08:40:54;;;;;;;137.68;126.28;;;8.80;99.90;;;;;;12628431;28;20053;-35
2023/12/11 08:46:56;;;;;;;133.48;122.38;;;8.80;99.90;;;;;;12623299;28;20045;-36
2023/12/11 08:53:00;;;;;;;135.32;124.43;;;8.80;99.90;;;;;;12613149;28;20075;-36
2023/12/11 08:59:01;;;;;;;141.70;130.37;;;8.80;99.90;;;;;;12599110;28;20047;-36
2023/12/11 09:05:04;;;;;;;165.02;151.95;;;8.80;99.90;;;;;;12613005;28;20045;-35
2023/12/11 09:11:06;;;;;;;175.18;161.90;;;8.70;99.90;;;;;;12620402;28;20055;-36
2023/12/11 09:17:07;;;;;;;176.07;163.02;;;8.70;99.90;;;;;;12599143;28;20381;-36
2023/12/11 09:23:10;;;;;;;173.63;160.38;;;8.60;99.90;;;;;;12625061;28;20058;-35
2023/12/11 09:29:11;;;;;;;173.73;161.55;;;8.60;99.90;;;;;;12627689;28;20402;-35
2023/12/11 09:35:14;;;;;;;194.43;181.32;;;8.60;99.90;;;;;;12594077;28;20052;-35
2023/12/11 09:41:16;;;;;;;188.50;175.20;;;8.60;99.90;;;;;;12603827;28;20063;-36
2023/12/11 09:47:34;;;;;;;203.20;189.23;;;8.60;99.90;;;;;;12610436;28;20040;-36
2023/12/11 09:53:37;;;;;;;213.57;199.63;;;8.60;99.90;;;;;;12582254;28;20171;-35
2023/12/11 09:59:40;;;;;;;221.20;206.65;;;8.60;99.90;;;;;;12587702;28;20052;-36
2023/12/11 10:05:42;;;;;;;221.68;207.05;;;8.60;99.90;;;;;;12589611;28;20061;-36
2023/12/11 10:11:58;;;;;;;214.93;201.02;;;8.60;99.90;;;;;;12609323;28;20059;-36
2023/12/11 10:18:12;;;;;;;233.55;218.82;;;8.70;99.90;;;;;;12617379;28;20513;-35
2023/12/11 10:24:15;;;;;;;;;;;8.70;99.90;;;;;;12608758;28;20663;-35
2023/12/11 10:30:18;;;;;;;297.55;278.80;;;8.70;99.90;;;;;;12622639;28;19942;-35
2023/12/11 10:36:22;;;;;;;254.32;237.90;;;8.70;99.90;;;;;;12605725;28;20040;-34
2023/12/11 10:42:25;;;;;;;260.98;244.27;;;8.80;99.90;;;;;;12612551;28;20427;-35
2023/12/11 10:48:27;;;;;;;319.25;299.40;;;8.80;99.90;;;;;;12615234;28;20473;-35
2023/12/11 10:54:30;;;;;;;293.92;275.73;;;8.70;99.90;;;;;;12616984;28;20405;-36
2023/12/11 11:00:32;;;;;;;313.25;293.92;;;8.70;99.90;;;;;;12611407;28;20131;-35
2023/12/11 11:06:46;;;;;;;319.33;299.92;;;8.70;99.90;;;;;;12629777;28;20485;-36
2023/12/11 11:13:12;;;;;;;326.17;306.20;;;8.60;99.90;;;;;;12599655;28;20543;-35
2023/12/11 11:19:15;;;;;;;356.50;334.33;;;8.70;99.90;;;;;;12596719;28;20045;-35
2023/12/11 11:25:34;;;;;;;370.73;347.60;;;8.70;99.90;;;;;;12603550;28;20123;-35
2023/12/11 11:31:50;;;;;;;324.48;304.00;;;8.70;99.90;;;;;;12622298;28;20048;-35
2023/12/11 11:37:52;;;;;;;289.15;270.88;;;8.80;99.90;;;;;;12603922;28;20043;-36
2023/12/11 11:43:58;;;;;;;312.42;292.67;;;8.90;99.90;;;;;;12609523;28;20060;-35
2023/12/11 11:50:13;;;;;;;377.83;354.38;;;8.80;99.90;;;;;;12603808;28;20049;-35
2023/12/11 11:56:16;;;;;;;372.33;349.65;;;8.70;99.90;;;;;;12599311;28;20153;-35
2023/12/11 12:02:23;;;;;;;394.58;370.48;;;8.80;99.90;;;;;;12604317;28;20048;-35
2023/12/11 12:08:25;;;;;;;385.20;361.38;;;8.70;99.90;;;;;;12620728;28;20041;-35
2023/12/11 12:14:27;;;;;;;348.15;326.80;;;8.80;99.90;;;;;;12618445;28;20044;-36
2023/12/11 12:20:29;;;;;;;353.50;331.55;;;8.80;99.90;;;;;;12612476;28;20131;-34
2023/12/11 12:26:34;;;;;;;314.60;294.80;;;8.70;99.90;;;;;;12642964;28;20131;-35
2023/12/11 12:32:38;;;;;;;352.98;330.77;;;8.80;99.90;;;;;;12615412;28;20047;-35
2023/12/11 12:38:40;;;;;;;361.70;339.50;;;8.70;99.90;;;;;;12601840;28;20052;-35
2023/12/11 12:44:42;;;;;;;379.95;356.88;;;8.70;99.90;;;;;;12619781;28;20083;-35
2023/12/11 12:50:44;;;;;;;384.30;360.75;;;8.70;99.90;;;;;;12591179;28;20732;-35
2023/12/11 12:56:58;;;;;;;387.63;364.27;;;8.70;99.90;;;;;;12609037;28;20086;-35
2023/12/11 13:03:07;;;;;;;285.88;268.27;;;8.70;99.90;;;;;;12591204;28;20444;-35
2023/12/11 13:09:10;;;;;;;168.52;156.82;;;8.70;99.90;;;;;;12579410;28;20077;-35
2023/12/11 13:15:12;;;;;;;128.38;119.18;;;8.90;99.90;;;;;;12597480;28;20048;-35
2023/12/11 13:21:15;;;;;;;106.15;98.32;;;8.80;99.90;;;;;;12595848;28;20421;-35
2023/12/11 13:27:17;;;;;;;127.28;118.05;;;8.90;99.90;;;;;;12603708;28;20409;-35
2023/12/11 13:33:19;;;;;;;123.35;114.30;;;8.90;99.90;;;;;;12614452;28;20083;-35
2023/12/11 13:39:21;;;;;;;124.88;115.88;;;8.70;99.90;;;;;;12603442;28;20189;-34
2023/12/11 13:45:22;;;;;;;135.98;126.43;;;8.60;99.90;;;;;;12612757;28;20123;-35
2023/12/11 13:51:24;;;;;;;155.27;144.80;;;8.50;99.90;;;;;;12609662;28;20040;-36
2023/12/11 13:57:27;;;;;;;175.50;163.57;;;8.50;99.90;;;;;;12623587;28;20084;-35
2023/12/11 14:03:30;;;;;;;203.68;190.32;;;8.40;99.90;;;;;;12625433;28;20059;-36
2023/12/11 14:09:32;;;;;;;172.02;160.27;;;8.40;99.90;;;;;;12610609;28;20401;-35
2023/12/11 14:15:36;;;;;;;152.60;142.02;;;8.40;99.90;;;;;;12624910;28;20124;-36
2023/12/11 14:21:37;;;;;;;124.47;115.65;;;8.40;99.90;;;;;;12626632;28;20056;-35
2023/12/11 14:27:39;;;;;;;115.00;106.60;;;8.40;99.90;;;;;;12601276;28;20627;-35
2023/12/11 14:33:41;;;;;;;108.22;100.45;;;8.40;99.90;;;;;;12616050;28;20048;-35
2023/12/11 14:39:44;;;;;;;100.50;93.30;;;8.40;99.90;;;;;;12600013;28;20052;-35
2023/12/11 14:45:46;;;;;;;89.03;82.15;;;8.40;99.90;;;;;;12591614;28;20135;-35
2023/12/11 14:51:48;;;;;;;114.68;106.60;;;8.40;99.90;;;;;;12637076;28;20071;-36
2023/12/11 14:57:50;;;;;;;118.30;110.18;;;8.40;99.90;;;;;;12627263;28;20060;-35
2023/12/11 15:03:52;;;;;;;111.90;104.25;;;8.20;99.90;;;;;;12606054;28;20048;-36
2023/12/11 15:09:54;;;;;;;98.55;91.25;;;8.20;99.90;;;;;;12618553;28;20048;-35
2023/12/11 15:15:56;;;;;;;99.18;92.18;;;8.20;99.90;;;;;;12619559;28;20566;-35
2023/12/11 15:21:59;;;;;;;82.45;76.53;;;8.10;99.90;;;;;;12623706;28;20080;-35
2023/12/11 15:28:02;;;;;;;75.47;69.88;;;8.20;99.90;;;;;;12602265;28;20045;-35
2023/12/11 15:34:04;;;;;;;79.95;74.05;;;8.20;99.90;;;;;;12611617;28;20044;-35
2023/12/11 15:40:07;;;;;;;83.13;76.93;;;8.10;99.90;;;;;;12607110;28;20529;-36
2023/12/11 15:46:09;;;;;;;84.90;78.50;;;8.00;99.90;;;;;;12623122;28;20150;-35
2023/12/11 15:52:11;;;;;;;99.47;92.13;;;8.00;99.90;;;;;;12632176;28;20039;-35
2023/12/11 15:58:13;;;;;;;99.78;92.60;;;7.90;99.90;;;;;;12610716;28;20109;-35
2023/12/11 16:04:16;;;;;;;95.32;88.50;;;7.70;99.90;;;;;;12604464;28;20052;-35
2023/12/11 16:10:18;;;;;;;95.65;88.85;;;7.60;99.90;;;;;;12616097;28;20092;-35
2023/12/11 16:16:20;;;;;;;86.85;80.70;;;7.50;99.90;;;;;;12621686;28;20494;-35
2023/12/11 16:22:22;;;;;;;81.38;75.20;;;7.50;99.90;;;;;;12596102;28;20052;-35
2023/12/11 16:28:26;;;;;;;77.53;72.03;;;7.50;99.90;;;;;;12593470;28;20051;-35
2023/12/11 16:34:31;;;;;;;65.05;60.40;;;7.50;99.90;;;;;;12621355;28;20048;-35
2023/12/11 16:40:33;;;;;;;69.40;64.53;;;7.50;99.90;;;;;;12610181;28;20048;-36
2023/12/11 16:46:36;;;;;;;68.45;63.47;;;7.60;99.90;;;;;;12614887;28;20055;-35
2023/12/11 16:52:38;;;;;;;62.28;57.78;;;7.50;99.90;;;;;;12618465;28;20037;-35
2023/12/11 16:58:41;;;;;;;61.78;57.30;;;7.60;99.90;;;;;;12597624;28;20056;-35
2023/12/11 17:04:49;;;;;;;64.25;59.47;;;7.60;99.90;;;;;;12603770;28;20057;-35
2023/12/11 17:10:51;;;;;;;64.97;60.10;;;7.50;99.90;;;;;;12607260;28;20044;-35
2023/12/11 17:16:53;;;;;;;66.20;61.05;;;7.50;99.90;;;;;;12615849;28;20087;-36
2023/12/11 17:22:55;;;;;;;67.10;61.80;;;7.40;99.90;;;;;;12615963;28;20055;-35
2023/12/11 17:28:58;;;;;;;67.07;61.88;;;7.40;99.90;;;;;;12614210;28;20071;-35
2023/12/11 17:35:01;;;;;;;63.60;58.58;;;7.40;99.90;;;;;;12608256;28;20055;-35
2023/12/11 17:41:04;;;;;;;68.10;62.90;;;7.40;99.90;;;;;;12614700;28;20383;-35
2023/12/11 17:47:06;;;;;;;70.00;64.47;;;7.50;99.90;;;;;;12628446;28;20468;-35
2023/12/11 17:53:09;;;;;;;70.03;64.22;;;7.50;99.90;;;;;;12608822;28;20047;-35
2023/12/11 17:59:11;;;;;;;71.18;65.32;;;7.40;99.90;;;;;;12619706;28;20047;-35
2023/12/11 18:05:16;;;;;;;74.28;67.82;;;7.30;99.90;;;;;;12631016;28;20071;-36
2023/12/11 18:11:18;;;;;;;69.20;63.60;;;7.30;99.90;;;;;;12635529;28;20063;-35
2023/12/11 18:17:20;;;;;;;72.22;66.53;;;7.40;99.90;;;;;;12636540;28;20127;-35
2023/12/11 18:23:21;;;;;;;70.22;64.80;;;7.30;99.90;;;;;;12627336;28;20072;-35
2023/12/11 18:29:23;;;;;;;72.72;67.00;;;7.40;99.90;;;;;;12627330;28;20093;-35
2023/12/11 18:35:28;;;;;;;71.32;65.65;;;7.40;99.90;;;;;;12630057;28;20063;-35
2023/12/11 18:41:30;;;;;;;74.75;68.65;;;7.40;99.90;;;;;;12610427;28;20040;-35
2023/12/11 18:47:32;;;;;;;74.28;68.57;;;7.30;99.90;;;;;;12620805;28;20040;-35
2023/12/11 18:53:34;;;;;;;73.03;67.53;;;7.30;99.90;;;;;;12608624;28;20036;-35
2023/12/11 18:59:37;;;;;;;75.78;69.95;;;7.40;99.90;;;;;;12618005;28;20130;-35
2023/12/11 19:05:39;;;;;;;77.97;71.75;;;7.40;99.90;;;;;;12611078;28;20052;-36
2023/12/11 19:11:41;;;;;;;78.85;72.45;;;7.30;99.90;;;;;;12601195;28;20052;-35
2023/12/11 19:17:43;;;;;;;78.93;72.60;;;7.30;99.90;;;;;;12616290;28;20060;-35
2023/12/11 19:23:45;;;;;;;81.57;74.97;;;7.30;99.90;;;;;;12619793;28;20255;-35
2023/12/11 19:29:47;;;;;;;80.05;73.65;;;7.20;99.90;;;;;;12618927;28;20076;-36
2023/12/11 19:35:49;;;;;;;79.95;73.70;;;7.20;99.90;;;;;;12611074;28;20670;-35
2023/12/11 19:41:53;;;;;;;79.38;72.82;;;7.20;99.90;;;;;;12588328;28;20052;-35
2023/12/11 19:47:55;;;;;;;79.30;73.10;;;7.30;99.90;;;;;;12605491;28;20059;-35
2023/12/11 19:53:57;;;;;;;77.75;71.70;;;7.30;99.90;;;;;;12619734;28;20052;-35
2023/12/11 19:59:59;;;;;;;82.18;75.38;;;7.30;99.90;;;;;;12611686;28;20515;-35
2023/12/11 20:06:00;;;;;;;87.22;80.43;;;7.30;99.90;;;;;;12617765;28;20044;-35
2023/12/11 20:12:03;;;;;;;92.97;85.57;;;7.30;99.90;;;;;;12606894;28;20101;-35
2023/12/11 20:18:16;;;;;;;90.55;83.50;;;7.20;99.90;;;;;;12608701;28;20060;-35
2023/12/11 20:24:18;;;;;;;93.57;86.17;;;7.10;99.90;;;;;;12607152;28;20088;-35
2023/12/11 20:30:20;;;;;;;94.35;86.85;;;6.90;99.90;;;;;;12618022;28;20040;-35
2023/12/11 20:36:22;;;;;;;91.22;84.05;;;6.90;99.90;;;;;;12619099;28;20083;-36
2023/12/11 20:42:24;;;;;;;92.55;85.40;;;6.90;99.90;;;;;;12591863;28;20045;-36
2023/12/11 20:48:26;;;;;;;96.00;88.43;;;6.90;99.90;;;;;;12591091;28;20542;-35
2023/12/11 20:54:28;;;;;;;96.13;89.07;;;6.80;99.90;;;;;;12601492;28;20470;-35
2023/12/11 21:00:29;;;;;;;99.05;91.88;;;6.80;99.90;;;;;;12620749;28;21080;-35
2023/12/11 21:06:32;;;;;;;104.57;97.28;;;6.70;99.90;;;;;;12613695;28;20052;-35
2023/12/11 21:12:34;;;;;;;103.70;96.20;;;6.60;99.90;;;;;;12598411;28;20533;-35
2023/12/11 21:18:36;;;;;;;101.05;93.85;;;6.50;99.90;;;;;;12602571;28;20048;-35
2023/12/11 21:24:38;;;;;;;108.03;99.80;;;6.40;99.90;;;;;;12622636;28;20145;-35
2023/12/11 21:30:40;;;;;;;109.57;102.07;;;6.30;99.90;;;;;;12595639;28;20051;-35
2023/12/11 21:36:42;;;;;;;102.88;95.45;;;6.30;99.90;;;;;;12606350;28;20100;-35
2023/12/11 21:42:44;;;;;;;104.93;97.10;;;6.20;99.90;;;;;;12603279;28;20559;-35
2023/12/11 21:48:47;;;;;;;112.57;104.60;;;6.10;99.90;;;;;;12597939;28;20044;-36
2023/12/11 21:54:50;;;;;;;98.27;90.97;;;5.90;99.90;;;;;;12616296;28;20109;-35
2023/12/11 22:00:52;;;;;;;96.85;89.28;;;6.10;99.90;;;;;;12620806;28;20409;-35
2023/12/11 22:06:54;;;;;;;96.07;88.82;;;6.00;99.90;;;;;;12604843;28;20045;-35
2023/12/11 22:12:57;;;;;;;103.65;96.05;;;6.00;99.90;;;;;;12597276;28;20090;-35
2023/12/11 22:19:00;;;;;;;99.60;92.63;;;6.00;99.90;;;;;;12590996;28;20049;-35
2023/12/11 22:25:02;;;;;;;102.80;95.00;;;6.00;99.90;;;;;;12620525;28;20154;-35
2023/12/11 22:31:04;;;;;;;105.47;97.72;;;5.90;99.90;;;;;;12612204;28;20076;-35
2023/12/11 22:37:07;;;;;;;112.07;103.88;;;5.90;99.90;;;;;;12626357;28;20084;-35
2023/12/11 22:43:08;;;;;;;114.03;105.78;;;5.80;99.90;;;;;;12601209;28;20052;-35
2023/12/11 22:49:10;;;;;;;124.88;115.68;;;5.80;99.90;;;;;;12610004;28;20052;-35
2023/12/11 22:55:13;;;;;;;128.05;118.60;;;5.70;99.90;;;;;;12623194;28;20040;-35
2023/12/11 23:01:15;;;;;;;127.40;118.45;;;5.60;99.90;;;;;;12618680;28;20052;-35
2023/12/11 23:07:17;;;;;;;129.75;120.63;;;5.60;99.90;;;;;;12633220;28;20052;-36
2023/12/11 23:13:18;;;;;;;133.57;123.78;;;5.60;99.90;;;;;;12622492;28;20053;-35
2023/12/11 23:19:21;;;;;;;133.95;124.18;;;5.50;99.90;;;;;;12610899;28;20056;-35
2023/12/11 23:25:23;;;;;;;123.78;115.03;;;5.60;99.90;;;;;;12610065;28;20048;-35
2023/12/11 23:31:25;;;;;;;129.35;119.75;;;5.70;99.90;;;;;;12615725;28;20048;-35
2023/12/11 23:37:27;;;;;;;131.85;122.18;;;5.60;99.90;;;;;;12623294;28;20174;-35
2023/12/11 23:43:29;;;;;;;129.25;120.18;;;5.60;99.90;;;;;;12621270;28;20120;-35
2023/12/11 23:49:31;;;;;;;127.35;118.20;;;5.70;99.90;;;;;;12605736;28;20548;-35
2023/12/11 23:55:33;;;;;;;140.20;130.55;;;5.70;99.90;;;;;;12619985;28;20061;-36
